Time;durP1;ratioP1;P1;durP2;ratioP2;P2;SDS_P1;SDS_P2;PMS_P1;PMS_P2;Temp;Humidity;BMP_temperature;BMP_pressure;BME280_temperature;BME280_humidity;BME280_pressure;Samples;Min_cycle;Max_cycle;Signal;HPM_P1;HPM_P2
2022/10/15 00:01:50;;;;;;;17.92;13.25;;;;;;;;;;5054731;28;20025;-66
2022/10/15 00:04:15;;;;;;;18.52;13.07;;;;;;;;;;5056238;28;20438;-74
2022/10/15 00:06:41;;;;;;;16.00;12.52;;;;;;;;;;5056286;28;20029;-75
2022/10/15 00:09:06;;;;;;;18.77;13.10;;;;;;;;;;5056087;28;20380;-73
2022/10/15 00:11:31;;;;;;;17.70;12.02;;;;;;;;;;5055875;28;20427;-74
2022/10/15 00:13:59;;;;;;;16.00;12.27;;;;;;;;;;5056083;28;20040;-73
2022/10/15 00:16:26;;;;;;;15.02;12.30;;;;;;;;;;5055728;28;20033;-75
2022/10/15 00:18:55;;;;;;;17.58;13.35;;;;;;;;;;5056035;28;20070;-73
2022/10/15 00:21:21;;;;;;;19.20;12.93;;;;;;;;;;5056209;28;20017;-70
2022/10/15 00:23:48;;;;;;;20.92;13.05;;;;;;;;;;5055948;28;20429;-74
2022/10/15 00:26:20;;;;;;;18.63;12.63;;;;;;;;;;5055933;28;20029;-75
2022/10/15 00:28:48;;;;;;;15.70;11.93;;;;;;;;;;5055805;28;20487;-74
2022/10/15 00:31:16;;;;;;;19.20;13.05;;;;;;;;;;5055930;28;20036;-73
2022/10/15 00:33:42;;;;;;;16.73;12.63;;;;;;;;;;5055355;28;20024;-74
2022/10/15 00:36:13;;;;;;;18.60;12.57;;;;;;;;;;5055322;28;20043;-73
2022/10/15 00:38:39;;;;;;;16.40;12.32;;;;;;;;;;5055677;28;20025;-71
2022/10/15 00:41:06;;;;;;;18.65;12.77;;;;;;;;;;5056090;28;20032;-70
2022/10/15 00:43:43;;;;;;;16.80;12.25;;;;;;;;;;5056377;28;20068;-75
2022/10/15 00:46:37;;;;;;;18.42;13.00;;;;;;;;;;5056283;28;20036;-70
2022/10/15 00:49:24;;;;;;;17.10;11.77;;;;;;;;;;5053593;28;20045;-72
2022/10/15 00:52:02;;;;;;;16.60;11.80;;;;;;;;;;5055829;28;20048;-66
2022/10/15 00:54:32;;;;;;;15.52;12.35;;;;;;;;;;5055935;28;20032;-72
2022/10/15 00:56:58;;;;;;;15.57;12.18;;;;;;;;;;5055848;28;20025;-75
2022/10/15 00:59:26;;;;;;;17.20;12.45;;;;;;;;;;5055603;28;20427;-66
2022/10/15 01:01:53;;;;;;;14.60;11.45;;;;;;;;;;5054977;28;20108;-67
2022/10/15 01:04:19;;;;;;;15.00;11.85;;;;;;;;;;5055350;28;20036;-61
2022/10/15 01:06:45;;;;;;;14.75;11.45;;;;;;;;;;5055487;28;20031;-71
2022/10/15 01:09:11;;;;;;;20.52;11.80;;;;;;;;;;5055885;28;20033;-70
2022/10/15 01:11:43;;;;;;;16.33;11.65;;;;;;;;;;5055272;28;20074;-74
2022/10/15 01:14:35;;;;;;;16.75;12.55;;;;;;;;;;5054296;28;20469;-75
2022/10/15 01:17:15;;;;;;;14.20;11.52;;;;;;;;;;5055312;28;20167;-75
2022/10/15 01:20:30;;;;;;;16.27;11.30;;;;;;;;;;5055286;28;20036;-67
2022/10/15 01:23:07;;;;;;;16.98;11.68;;;;;;;;;;5032816;28;20117;-67
2022/10/15 01:25:44;;;;;;;17.45;12.27;;;;;;;;;;5052226;28;20033;-64
2022/10/15 01:28:41;;;;;;;16.42;11.57;;;;;;;;;;5054738;28;20473;-63
2022/10/15 01:31:29;;;;;;;14.30;10.85;;;;;;;;;;5054744;28;20061;-66
2022/10/15 01:34:12;;;;;;;16.20;11.23;;;;;;;;;;5054807;28;20025;-68
2022/10/15 01:36:42;;;;;;;16.52;10.85;;;;;;;;;;5055496;28;20098;-72
2022/10/15 01:39:20;;;;;;;14.70;10.88;;;;;;;;;;5055768;28;20027;-71
2022/10/15 01:41:51;;;;;;;15.98;11.88;;;;;;;;;;5055446;28;20021;-71
2022/10/15 01:44:22;;;;;;;14.70;11.10;;;;;;;;;;5055522;28;20473;-73
2022/10/15 01:46:57;;;;;;;14.80;11.10;;;;;;;;;;5055567;28;20102;-68
2022/10/15 01:49:29;;;;;;;19.23;10.77;;;;;;;;;;5055392;28;20029;-73
2022/10/15 01:51:57;;;;;;;14.45;10.65;;;;;;;;;;5055373;28;20025;-76
2022/10/15 01:54:25;;;;;;;15.98;11.13;;;;;;;;;;5055057;28;20028;-74
2022/10/15 01:56:52;;;;;;;15.02;10.85;;;;;;;;;;5055249;28;20426;-68
2022/10/15 01:59:28;;;;;;;16.17;10.88;;;;;;;;;;5055438;28;20021;-76
2022/10/15 02:01:54;;;;;;;15.15;10.80;;;;;;;;;;5055367;28;20028;-71
2022/10/15 02:04:24;;;;;;;15.32;10.68;;;;;;;;;;5054654;28;20029;-66
2022/10/15 02:06:57;;;;;;;12.63;10.30;;;;;;;;;;5054570;28;20025;-70
2022/10/15 02:09:33;;;;;;;15.13;11.32;;;;;;;;;;5053888;28;20032;-72
2022/10/15 02:12:19;;;;;;;14.40;10.25;;;;;;;;;;5053577;28;20083;-74
2022/10/15 02:14:53;;;;;;;16.48;10.38;;;;;;;;;;5053799;28;20032;-67
2022/10/15 02:17:31;;;;;;;13.98;10.48;;;;;;;;;;5053212;28;20032;-72
2022/10/15 02:20:46;;;;;;;14.07;10.85;;;;;;;;;;5053873;28;20048;-72
2022/10/15 02:23:40;;;;;;;14.90;10.45;;;;;;;;;;5051353;28;20032;-74
2022/10/15 02:26:08;;;;;;;13.43;10.40;;;;;;;;;;5049346;28;20035;-67
2022/10/15 02:28:35;;;;;;;16.50;10.85;;;;;;;;;;5053221;28;20162;-71
2022/10/15 02:31:02;;;;;;;13.48;9.82;;;;;;;;;;5053499;28;20101;-71
2022/10/15 02:33:29;;;;;;;14.27;9.98;;;;;;;;;;5053226;28;20029;-70
2022/10/15 02:35:56;;;;;;;16.65;10.35;;;;;;;;;;5053208;28;20032;-74
2022/10/15 02:38:24;;;;;;;15.77;10.35;;;;;;;;;;5053138;28;20048;-72
2022/10/15 02:40:50;;;;;;;17.88;10.73;;;;;;;;;;5055283;28;20094;-72
2022/10/15 02:43:18;;;;;;;12.63;10.30;;;;;;;;;;5055113;28;20040;-72
2022/10/15 02:45:44;;;;;;;14.98;11.05;;;;;;;;;;5055214;28;20032;-67
2022/10/15 02:48:09;;;;;;;15.15;10.43;;;;;;;;;;5054958;28;20021;-67
2022/10/15 02:50:35;;;;;;;13.73;10.27;;;;;;;;;;5054697;28;20078;-66
2022/10/15 02:53:01;;;;;;;12.98;9.93;;;;;;;;;;5054916;28;20094;-76
2022/10/15 02:55:26;;;;;;;13.23;9.90;;;;;;;;;;5054182;28;20045;-71
2022/10/15 02:57:52;;;;;;;13.93;10.15;;;;;;;;;;5053808;28;20028;-74
2022/10/15 03:00:17;;;;;;;14.55;9.88;;;;;;;;;;5054498;28;20461;-71
2022/10/15 03:02:43;;;;;;;13.25;10.10;;;;;;;;;;5053587;28;20105;-62
2022/10/15 03:05:09;;;;;;;13.77;9.95;;;;;;;;;;5052805;28;20025;-68
2022/10/15 03:07:35;;;;;;;15.43;9.63;;;;;;;;;;5053088;28;20067;-68
2022/10/15 03:10:00;;;;;;;13.07;9.45;;;;;;;;;;5052845;28;20350;-68
2022/10/15 03:12:26;;;;;;;12.30;9.82;;;;;;;;;;5053060;28;20066;-62
2022/10/15 03:14:52;;;;;;;13.30;9.52;;;;;;;;;;5053224;28;20067;-62
2022/10/15 03:17:17;;;;;;;14.43;10.13;;;;;;;;;;5053052;28;20503;-70
2022/10/15 03:19:43;;;;;;;13.05;10.18;;;;;;;;;;5052714;28;20469;-66
2022/10/15 03:22:08;;;;;;;12.35;9.57;;;;;;;;;;5052500;28;20067;-70
2022/10/15 03:24:34;;;;;;;15.68;10.75;;;;;;;;;;5052467;28;20024;-74
2022/10/15 03:26:59;;;;;;;14.52;10.80;;;;;;;;;;5052396;28;20025;-68
2022/10/15 03:29:25;;;;;;;13.60;9.82;;;;;;;;;;5052373;28;20027;-73
2022/10/15 03:31:51;;;;;;;14.07;9.98;;;;;;;;;;5052502;28;20043;-65
2022/10/15 03:34:17;;;;;;;15.27;10.85;;;;;;;;;;5052534;28;20492;-65
2022/10/15 03:36:42;;;;;;;13.63;10.70;;;;;;;;;;5054892;28;20040;-65
2022/10/15 03:39:08;;;;;;;15.05;10.70;;;;;;;;;;5056999;28;20527;-69
2022/10/15 03:41:33;;;;;;;13.85;10.20;;;;;;;;;;5056765;28;20477;-70
2022/10/15 03:44:04;;;;;;;18.92;10.63;;;;;;;;;;5056977;28;20036;-66
2022/10/15 03:46:29;;;;;;;14.07;10.80;;;;;;;;;;5056334;28;20029;-71
2022/10/15 03:48:55;;;;;;;13.68;10.52;;;;;;;;;;5056372;28;20104;-73
2022/10/15 03:51:20;;;;;;;16.80;10.32;;;;;;;;;;5056871;28;20021;-75
2022/10/15 03:53:46;;;;;;;14.88;10.95;;;;;;;;;;5056751;28;20021;-71
2022/10/15 03:56:11;;;;;;;15.63;10.77;;;;;;;;;;5056062;28;20091;-68
2022/10/15 03:58:37;;;;;;;15.68;10.98;;;;;;;;;;5056161;28;20481;-66
2022/10/15 04:01:11;;;;;;;12.23;10.20;;;;;;;;;;5056012;28;20021;-68
2022/10/15 04:03:37;;;;;;;18.35;10.60;;;;;;;;;;5056509;28;20037;-71
2022/10/15 04:06:02;;;;;;;18.20;10.15;;;;;;;;;;5056573;28;20448;-65
2022/10/15 04:08:28;;;;;;;14.70;10.65;;;;;;;;;;5055878;28;20469;-73
2022/10/15 04:10:53;;;;;;;12.80;10.50;;;;;;;;;;5056340;28;20025;-74
2022/10/15 04:13:19;;;;;;;12.75;10.35;;;;;;;;;;5056168;28;20435;-73
2022/10/15 04:15:44;;;;;;;13.85;9.85;;;;;;;;;;5056153;28;20021;-73
2022/10/15 04:18:10;;;;;;;13.65;10.02;;;;;;;;;;5056294;28;20021;-63
2022/10/15 04:20:36;;;;;;;14.20;10.68;;;;;;;;;;5056004;28;20032;-59
2022/10/15 04:23:01;;;;;;;14.05;10.73;;;;;;;;;;5056061;28;20025;-63
2022/10/15 04:25:27;;;;;;;14.18;9.95;;;;;;;;;;5055785;28;20035;-68
2022/10/15 04:27:52;;;;;;;13.45;9.82;;;;;;;;;;5056096;28;20032;-71
2022/10/15 04:30:18;;;;;;;15.57;10.18;;;;;;;;;;5055729;28;20103;-64
2022/10/15 04:32:43;;;;;;;18.38;10.13;;;;;;;;;;5055653;28;20032;-64
2022/10/15 04:35:08;;;;;;;15.95;11.13;;;;;;;;;;5055853;28;20112;-73
2022/10/15 04:37:35;;;;;;;17.05;11.13;;;;;;;;;;5056028;28;20033;-66
2022/10/15 04:40:00;;;;;;;15.43;10.18;;;;;;;;;;5056337;28;20373;-67
2022/10/15 04:42:28;;;;;;;14.57;10.10;;;;;;;;;;5056798;28;20036;-62
2022/10/15 04:44:54;;;;;;;14.88;10.27;;;;;;;;;;5056175;28;20108;-63
2022/10/15 04:47:19;;;;;;;17.60;10.02;;;;;;;;;;5055600;28;20079;-67
2022/10/15 04:49:45;;;;;;;17.05;10.90;;;;;;;;;;5055764;28;20029;-62
2022/10/15 04:52:10;;;;;;;16.20;10.18;;;;;;;;;;5055918;28;20094;-69
2022/10/15 04:54:35;;;;;;;17.33;10.75;;;;;;;;;;5055304;28;20088;-62
2022/10/15 04:57:02;;;;;;;13.68;10.05;;;;;;;;;;5055245;28;20033;-73
2022/10/15 04:59:28;;;;;;;14.43;9.63;;;;;;;;;;5055292;28;20032;-70
2022/10/15 05:01:53;;;;;;;14.40;10.00;;;;;;;;;;5054915;28;20024;-61
2022/10/15 05:04:18;;;;;;;14.35;10.35;;;;;;;;;;5055142;28;20130;-61
2022/10/15 05:06:44;;;;;;;12.55;9.80;;;;;;;;;;5055088;28;20035;-70
2022/10/15 05:09:09;;;;;;;14.70;9.73;;;;;;;;;;5055035;28;20347;-66
2022/10/15 05:11:39;;;;;;;14.05;10.07;;;;;;;;;;5054770;28;20071;-69
2022/10/15 05:14:05;;;;;;;19.60;9.82;;;;;;;;;;5055028;28;20056;-70
2022/10/15 05:16:31;;;;;;;15.88;9.93;;;;;;;;;;5054439;28;20037;-64
2022/10/15 05:18:59;;;;;;;16.58;9.95;;;;;;;;;;5054792;28;20020;-67
2022/10/15 05:21:26;;;;;;;14.48;9.77;;;;;;;;;;5054599;28;20075;-67
2022/10/15 05:23:52;;;;;;;15.07;9.80;;;;;;;;;;5054876;28;20041;-73
2022/10/15 05:26:20;;;;;;;13.88;9.45;;;;;;;;;;5055948;28;20078;-60
2022/10/15 05:28:45;;;;;;;16.85;9.63;;;;;;;;;;5055575;28;20047;-76
2022/10/15 05:31:13;;;;;;;12.38;9.45;;;;;;;;;;5055774;28;20163;-75
2022/10/15 05:33:38;;;;;;;14.52;9.30;;;;;;;;;;5055800;28;20104;-75
2022/10/15 05:36:18;;;;;;;14.50;9.20;;;;;;;;;;5055808;28;20044;-75
2022/10/15 05:38:44;;;;;;;12.68;9.13;;;;;;;;;;5056761;28;20025;-63
2022/10/15 05:41:10;;;;;;;13.98;9.68;;;;;;;;;;5056723;28;20108;-73
2022/10/15 05:43:37;;;;;;;15.07;9.70;;;;;;;;;;5056419;28;20072;-76
2022/10/15 05:46:02;;;;;;;16.10;9.48;;;;;;;;;;5055615;28;20500;-74
2022/10/15 05:48:28;;;;;;;13.63;9.48;;;;;;;;;;5055230;28;20025;-71
2022/10/15 05:50:53;;;;;;;14.75;9.15;;;;;;;;;;5054611;28;20476;-76
2022/10/15 05:53:20;;;;;;;14.00;9.05;;;;;;;;;;5054041;28;20385;-76
2022/10/15 05:55:45;;;;;;;12.88;8.93;;;;;;;;;;5053748;28;20047;-74
2022/10/15 05:58:11;;;;;;;11.98;9.50;;;;;;;;;;5053386;28;20033;-75
2022/10/15 06:00:38;;;;;;;17.65;9.50;;;;;;;;;;5053814;28;20036;-59
2022/10/15 06:03:05;;;;;;;12.13;9.13;;;;;;;;;;5054011;28;20025;-72
2022/10/15 06:05:30;;;;;;;14.85;9.38;;;;;;;;;;5053853;28;20048;-76
2022/10/15 06:07:56;;;;;;;16.63;8.55;;;;;;;;;;5053853;28;20477;-74
2022/10/15 06:10:21;;;;;;;14.10;9.90;;;;;;;;;;5053837;28;20397;-71
2022/10/15 06:12:50;;;;;;;15.27;8.43;;;;;;;;;;5053748;28;20029;-71
2022/10/15 06:15:17;;;;;;;11.75;8.30;;;;;;;;;;5053607;28;20029;-74
2022/10/15 06:17:42;;;;;;;12.80;9.00;;;;;;;;;;5053375;28;20120;-71
2022/10/15 06:20:08;;;;;;;11.60;8.45;;;;;;;;;;5053283;28;20115;-76
2022/10/15 06:22:33;;;;;;;15.20;9.18;;;;;;;;;;5053460;28;20017;-74
2022/10/15 06:24:59;;;;;;;11.52;8.95;;;;;;;;;;5053163;28;20024;-64
2022/10/15 06:27:24;;;;;;;14.77;8.65;;;;;;;;;;5053527;28;20060;-75
2022/10/15 06:29:50;;;;;;;12.18;8.13;;;;;;;;;;5053458;28;20025;-75
2022/10/15 06:32:15;;;;;;;18.38;8.88;;;;;;;;;;5053151;28;20029;-75
2022/10/15 06:34:41;;;;;;;12.30;8.85;;;;;;;;;;5053364;28;20029;-75
2022/10/15 06:37:06;;;;;;;14.73;8.82;;;;;;;;;;5053088;28;20036;-69
2022/10/15 06:39:31;;;;;;;15.55;9.00;;;;;;;;;;5052298;28;20120;-75
2022/10/15 06:41:57;;;;;;;16.50;8.68;;;;;;;;;;5052593;28;20021;-60
2022/10/15 06:44:22;;;;;;;10.75;8.30;;;;;;;;;;5052423;28;20021;-73
2022/10/15 06:46:47;;;;;;;12.07;8.57;;;;;;;;;;5052943;28;20031;-73
2022/10/15 06:49:13;;;;;;;13.40;8.60;;;;;;;;;;5052668;28;20350;-73
2022/10/15 06:51:38;;;;;;;16.83;8.88;;;;;;;;;;5052286;28;20064;-71
2022/10/15 06:54:04;;;;;;;12.82;8.25;;;;;;;;;;5052785;28;20056;-73
2022/10/15 06:56:29;;;;;;;13.18;8.88;;;;;;;;;;5052491;28;20052;-72
2022/10/15 06:58:54;;;;;;;14.05;8.70;;;;;;;;;;5052688;28;20021;-73
2022/10/15 07:01:20;;;;;;;13.32;8.32;;;;;;;;;;5052910;28;20103;-74
2022/10/15 07:03:48;;;;;;;15.43;9.85;;;;;;;;;;5052548;28;20025;-73
2022/10/15 07:06:14;;;;;;;14.15;8.57;;;;;;;;;;5052822;28;20044;-74
2022/10/15 07:08:40;;;;;;;13.48;8.07;;;;;;;;;;5052607;28;20465;-73
2022/10/15 07:11:08;;;;;;;16.40;9.13;;;;;;;;;;5051888;28;20021;-73
2022/10/15 07:13:33;;;;;;;14.30;8.90;;;;;;;;;;5052867;28;20111;-75
2022/10/15 07:16:09;;;;;;;12.65;8.73;;;;;;;;;;5052474;28;20160;-73
2022/10/15 07:18:35;;;;;;;12.90;9.20;;;;;;;;;;5052528;28;20035;-74
2022/10/15 07:21:02;;;;;;;13.18;8.95;;;;;;;;;;5052788;28;20021;-71
2022/10/15 07:23:28;;;;;;;14.57;8.27;;;;;;;;;;5052378;28;20029;-72
2022/10/15 07:25:55;;;;;;;14.00;8.82;;;;;;;;;;5052267;28;20048;-73
2022/10/15 07:28:21;;;;;;;12.60;8.57;;;;;;;;;;5052630;28;20029;-73
2022/10/15 07:30:46;;;;;;;12.00;8.48;;;;;;;;;;5052240;28;20122;-70
2022/10/15 07:33:12;;;;;;;13.48;8.95;;;;;;;;;;5052556;28;20020;-71
2022/10/15 07:35:37;;;;;;;13.05;8.48;;;;;;;;;;5052241;28;20021;-72
2022/10/15 07:38:03;;;;;;;11.57;8.23;;;;;;;;;;5052053;28;20420;-72
2022/10/15 07:40:29;;;;;;;14.68;8.82;;;;;;;;;;5052535;28;20215;-72
2022/10/15 07:42:58;;;;;;;11.75;8.63;;;;;;;;;;5052089;28;20417;-73
2022/10/15 07:45:24;;;;;;;13.63;9.93;;;;;;;;;;5052118;28;20021;-67
2022/10/15 07:47:50;;;;;;;11.75;8.50;;;;;;;;;;5052207;28;20071;-71
2022/10/15 07:50:16;;;;;;;16.83;8.95;;;;;;;;;;5052128;28;20029;-71
2022/10/15 07:52:42;;;;;;;12.35;8.45;;;;;;;;;;5052113;28;20481;-62
2022/10/15 07:55:08;;;;;;;14.02;8.20;;;;;;;;;;5052146;28;20128;-73
2022/10/15 07:57:33;;;;;;;10.45;7.60;;;;;;;;;;5052229;28;20025;-72
2022/10/15 07:59:58;;;;;;;10.40;7.93;;;;;;;;;;5052354;28;20439;-72
2022/10/15 08:02:24;;;;;;;14.27;8.05;;;;;;;;;;5052060;28;20029;-72
2022/10/15 08:04:50;;;;;;;16.10;8.23;;;;;;;;;;5051995;28;20473;-73
2022/10/15 08:07:15;;;;;;;11.35;7.90;;;;;;;;;;5051996;28;20131;-74
2022/10/15 08:09:41;;;;;;;14.80;7.95;;;;;;;;;;5051988;28;20111;-73
2022/10/15 08:12:06;;;;;;;13.52;7.22;;;;;;;;;;5052246;28;20021;-74
2022/10/15 08:14:35;;;;;;;13.00;7.90;;;;;;;;;;5052252;28;20362;-75
2022/10/15 08:17:05;;;;;;;11.88;7.95;;;;;;;;;;5051765;28;20083;-72
2022/10/15 08:19:30;;;;;;;12.60;7.87;;;;;;;;;;5051917;28;20044;-69
2022/10/15 08:21:56;;;;;;;9.93;7.15;;;;;;;;;;5052483;28;20051;-59
2022/10/15 08:24:22;;;;;;;10.75;6.97;;;;;;;;;;5055793;28;20029;-68
2022/10/15 08:26:48;;;;;;;14.32;7.22;;;;;;;;;;5055744;28;20423;-68
2022/10/15 08:29:13;;;;;;;9.57;7.28;;;;;;;;;;5055722;28;20032;-74
2022/10/15 08:31:39;;;;;;;10.07;6.93;;;;;;;;;;5055806;28;20068;-74
2022/10/15 08:34:05;;;;;;;10.38;7.22;;;;;;;;;;5055660;28;20372;-73
2022/10/15 08:36:30;;;;;;;14.57;7.38;;;;;;;;;;5055511;28;20036;-75
2022/10/15 08:38:56;;;;;;;11.68;7.10;;;;;;;;;;5055354;28;20452;-66
2022/10/15 08:41:31;;;;;;;11.38;7.03;;;;;;;;;;5055517;28;20081;-74
2022/10/15 08:43:58;;;;;;;15.88;7.35;;;;;;;;;;5055548;28;20025;-73
2022/10/15 08:46:36;;;;;;;12.80;7.22;;;;;;;;;;5055340;28;20025;-72
2022/10/15 08:49:03;;;;;;;12.82;6.95;;;;;;;;;;5055386;28;20025;-74
2022/10/15 08:51:47;;;;;;;13.30;7.10;;;;;;;;;;5055124;28;20033;-70
2022/10/15 08:54:16;;;;;;;11.98;6.90;;;;;;;;;;5055054;28;20032;-68
2022/10/15 08:56:50;;;;;;;15.43;6.93;;;;;;;;;;5054821;28;20511;-71
2022/10/15 08:59:37;;;;;;;11.88;6.45;;;;;;;;;;5053744;28;20024;-71
2022/10/15 09:02:29;;;;;;;9.68;6.70;;;;;;;;;;5054964;28;20099;-71
2022/10/15 09:05:16;;;;;;;12.63;6.60;;;;;;;;;;5055096;28;20028;-67
2022/10/15 09:07:55;;;;;;;14.07;6.80;;;;;;;;;;5054844;28;20033;-74
2022/10/15 09:10:58;;;;;;;11.32;6.63;;;;;;;;;;5054771;28;20485;-74
2022/10/15 09:13:32;;;;;;;11.32;7.55;;;;;;;;;;5036216;28;20107;-68
2022/10/15 09:16:05;;;;;;;11.52;6.45;;;;;;;;;;5054894;28;20070;-69
2022/10/15 09:18:33;;;;;;;12.43;5.93;;;;;;;;;;5053337;28;20083;-72
2022/10/15 09:21:01;;;;;;;8.43;6.03;;;;;;;;;;5054774;28;20051;-65
2022/10/15 09:23:29;;;;;;;9.57;6.10;;;;;;;;;;5054417;28;20068;-68
2022/10/15 09:26:07;;;;;;;11.73;6.32;;;;;;;;;;5054430;28;20025;-72
2022/10/15 09:28:55;;;;;;;10.68;6.97;;;;;;;;;;5054660;28;20384;-68
2022/10/15 09:31:27;;;;;;;11.38;5.97;;;;;;;;;;5054290;28;20526;-69
2022/10/15 09:34:04;;;;;;;7.05;6.00;;;;;;;;;;5053679;28;20032;-71
2022/10/15 09:37:06;;;;;;;7.72;6.18;;;;;;;;;;5054436;28;20025;-60
2022/10/15 09:39:55;;;;;;;8.18;5.80;;;;;;;;;;5042566;28;20489;-73
2022/10/15 09:42:30;;;;;;;7.03;5.75;;;;;;;;;;5054443;28;20033;-72
2022/10/15 09:45:03;;;;;;;8.48;5.47;;;;;;;;;;5054135;28;20102;-68
2022/10/15 09:47:32;;;;;;;10.10;6.00;;;;;;;;;;5054076;28;20029;-64
2022/10/15 09:49:57;;;;;;;11.43;5.72;;;;;;;;;;5053960;28;20481;-64
2022/10/15 09:52:38;;;;;;;9.02;5.53;;;;;;;;;;5053953;28;20021;-66
2022/10/15 09:55:17;;;;;;;10.90;5.97;;;;;;;;;;5053678;28;20048;-69
2022/10/15 09:57:47;;;;;;;14.25;5.80;;;;;;;;;;5054071;28;20029;-73
2022/10/15 10:00:13;;;;;;;;;;;;;;;;;;5054478;28;20036;-75
2022/10/15 10:02:39;;;;;;;7.50;5.28;;;;;;;;;;5054074;28;19961;-66
2022/10/15 10:05:26;;;;;;;8.73;5.93;;;;;;;;;;5053853;28;20147;-60
2022/10/15 10:08:26;;;;;;;6.97;5.05;;;;;;;;;;5054074;28;20104;-73
2022/10/15 10:11:00;;;;;;;7.80;5.10;;;;;;;;;;5053308;28;20044;-73
2022/10/15 10:13:48;;;;;;;6.55;5.00;;;;;;;;;;5053293;28;20107;-65
2022/10/15 10:16:16;;;;;;;7.47;5.13;;;;;;;;;;5050413;28;20021;-73
2022/10/15 10:18:49;;;;;;;8.32;4.45;;;;;;;;;;5053009;28;20098;-73
2022/10/15 10:21:29;;;;;;;5.43;4.75;;;;;;;;;;5050595;28;20032;-72
2022/10/15 10:23:56;;;;;;;8.88;4.68;;;;;;;;;;5050818;28;20351;-70
2022/10/15 10:26:22;;;;;;;8.55;4.82;;;;;;;;;;5052568;28;20029;-72
2022/10/15 10:28:55;;;;;;;6.22;4.35;;;;;;;;;;5051431;28;20028;-64
2022/10/15 10:31:34;;;;;;;10.77;4.70;;;;;;;;;;5046790;28;20021;-61
2022/10/15 10:34:01;;;;;;;6.93;4.40;;;;;;;;;;5047947;28;20032;-64
2022/10/15 10:36:33;;;;;;;11.32;4.70;;;;;;;;;;5046083;28;20439;-62
2022/10/15 10:39:13;;;;;;;8.68;4.80;;;;;;;;;;5049556;28;20016;-72
2022/10/15 10:41:57;;;;;;;;;;;;;;;;;;5049715;28;20469;-71
2022/10/15 10:44:25;;;;;;;5.95;4.57;;;;;;;;;;5049205;28;19958;-68
2022/10/15 10:47:07;;;;;;;9.02;4.55;;;;;;;;;;5049444;28;20051;-65
2022/10/15 10:49:36;;;;;;;8.52;4.45;;;;;;;;;;5050728;28;20468;-68
2022/10/15 10:52:02;;;;;;;7.03;4.03;;;;;;;;;;5051264;28;20071;-74
2022/10/15 10:54:29;;;;;;;9.23;4.63;;;;;;;;;;5052855;28;20056;-68
2022/10/15 10:56:57;;;;;;;6.03;4.63;;;;;;;;;;5052748;28;20021;-67
2022/10/15 10:59:29;;;;;;;6.43;4.55;;;;;;;;;;5052515;28;20033;-68
2022/10/15 11:01:58;;;;;;;6.90;4.30;;;;;;;;;;5052929;28;20101;-70
2022/10/15 11:04:26;;;;;;;5.97;4.18;;;;;;;;;;5052582;28;20017;-66
2022/10/15 11:07:16;;;;;;;8.40;4.90;;;;;;;;;;5050146;28;20100;-68
2022/10/15 11:10:06;;;;;;;10.85;4.38;;;;;;;;;;5051338;28;20384;-69
2022/10/15 11:12:31;;;;;;;12.82;3.88;;;;;;;;;;5048052;28;20099;-72
2022/10/15 11:15:16;;;;;;;6.22;4.30;;;;;;;;;;5054082;28;20481;-73
2022/10/15 11:17:48;;;;;;;9.45;4.15;;;;;;;;;;5052037;28;20492;-70
2022/10/15 11:20:17;;;;;;;11.65;4.57;;;;;;;;;;5052184;28;20025;-69
2022/10/15 11:23:00;;;;;;;13.02;4.10;;;;;;;;;;5053286;28;20024;-66
2022/10/15 11:25:52;;;;;;;20.90;5.50;;;;;;;;;;5052707;28;20029;-71
2022/10/15 11:28:25;;;;;;;6.90;3.90;;;;;;;;;;5052924;28;20100;-72
2022/10/15 11:31:07;;;;;;;8.77;3.92;;;;;;;;;;5052620;28;20108;-70
2022/10/15 11:34:07;;;;;;;7.38;4.18;;;;;;;;;;5051990;28;20035;-66
2022/10/15 11:36:59;;;;;;;6.95;3.88;;;;;;;;;;5048413;28;20032;-72
2022/10/15 11:39:31;;;;;;;14.82;4.10;;;;;;;;;;5032459;28;20032;-63
2022/10/15 11:42:04;;;;;;;7.32;4.00;;;;;;;;;;5031514;28;20040;-65
2022/10/15 11:45:23;;;;;;;4.95;3.30;;;;;;;;;;5031983;28;20025;-64
2022/10/15 11:48:03;;;;;;;8.02;3.67;;;;;;;;;;5026778;28;20038;-66
2022/10/15 11:50:32;;;;;;;9.93;4.00;;;;;;;;;;5030453;28;20034;-64
2022/10/15 11:53:02;;;;;;;7.05;3.78;;;;;;;;;;5031700;28;20079;-68
2022/10/15 11:55:35;;;;;;;7.28;3.80;;;;;;;;;;5031587;28;20418;-72
2022/10/15 11:58:08;;;;;;;10.57;3.70;;;;;;;;;;5034706;28;20033;-64
2022/10/15 12:00:39;;;;;;;4.90;3.45;;;;;;;;;;5036380;28;20026;-64
2022/10/15 12:03:26;;;;;;;4.78;3.83;;;;;;;;;;5036438;28;20033;-68
2022/10/15 12:06:08;;;;;;;8.93;3.97;;;;;;;;;;5036284;28;20178;-64
2022/10/15 12:08:37;;;;;;;5.22;3.72;;;;;;;;;;5036319;28;20064;-71
2022/10/15 12:11:17;;;;;;;9.40;3.95;;;;;;;;;;5035926;28;20037;-63
2022/10/15 12:14:14;;;;;;;7.07;3.83;;;;;;;;;;5036180;28;20108;-63
2022/10/15 12:16:39;;;;;;;5.03;3.60;;;;;;;;;;5035726;28;20557;-71
2022/10/15 12:19:25;;;;;;;12.70;4.07;;;;;;;;;;5035824;28;20109;-73
2022/10/15 12:21:53;;;;;;;5.75;3.40;;;;;;;;;;5035766;28;20473;-65
2022/10/15 12:24:37;;;;;;;7.03;3.50;;;;;;;;;;5035626;28;20375;-66
2022/10/15 12:27:17;;;;;;;6.50;3.17;;;;;;;;;;5035903;28;20106;-69
2022/10/15 12:30:04;;;;;;;6.97;3.60;;;;;;;;;;5035873;28;20112;-68
2022/10/15 12:32:37;;;;;;;3.80;3.20;;;;;;;;;;5031480;28;20033;-70
2022/10/15 12:35:18;;;;;;;5.03;3.40;;;;;;;;;;5035831;28;20025;-69
2022/10/15 12:37:46;;;;;;;4.50;3.72;;;;;;;;;;5035655;28;20033;-66
2022/10/15 12:40:29;;;;;;;8.20;3.40;;;;;;;;;;5035311;28;20474;-65
2022/10/15 12:43:01;;;;;;;8.57;3.55;;;;;;;;;;5035658;28;20025;-63
2022/10/15 12:45:38;;;;;;;6.97;3.40;;;;;;;;;;5035645;28;20047;-63
2022/10/15 12:48:04;;;;;;;9.05;3.20;;;;;;;;;;5035243;28;20029;-66
2022/10/15 12:50:33;;;;;;;5.45;2.97;;;;;;;;;;5035308;28;20026;-64
2022/10/15 12:53:01;;;;;;;5.87;3.50;;;;;;;;;;5035489;28;20083;-67
2022/10/15 12:55:29;;;;;;;6.30;3.25;;;;;;;;;;5034779;28;20057;-71
2022/10/15 12:58:00;;;;;;;5.30;3.40;;;;;;;;;;5034991;28;20125;-71
2022/10/15 13:00:25;;;;;;;4.20;3.05;;;;;;;;;;5035346;28;20075;-69
2022/10/15 13:03:00;;;;;;;7.07;3.03;;;;;;;;;;5035254;28;20025;-64
2022/10/15 13:05:31;;;;;;;8.18;3.35;;;;;;;;;;5035249;28;20028;-64
2022/10/15 13:07:59;;;;;;;9.43;3.63;;;;;;;;;;5034441;28;20025;-67
2022/10/15 13:10:38;;;;;;;5.65;3.17;;;;;;;;;;5034317;28;20108;-67
2022/10/15 13:13:11;;;;;;;7.72;3.38;;;;;;;;;;5034861;28;20022;-66
2022/10/15 13:15:36;;;;;;;5.78;3.10;;;;;;;;;;5035008;28;20025;-67
2022/10/15 13:18:12;;;;;;;9.00;3.30;;;;;;;;;;5034957;28;20039;-71
2022/10/15 13:20:40;;;;;;;5.45;2.88;;;;;;;;;;5034700;28;20021;-70
2022/10/15 13:23:17;;;;;;;5.35;3.72;;;;;;;;;;5034895;28;20079;-67
2022/10/15 13:25:43;;;;;;;8.55;3.38;;;;;;;;;;5034542;28;20473;-68
2022/10/15 13:28:27;;;;;;;4.88;3.67;;;;;;;;;;5034781;28;20083;-66
2022/10/15 13:30:52;;;;;;;5.90;3.55;;;;;;;;;;5034490;28;20017;-69
2022/10/15 13:33:18;;;;;;;6.45;3.60;;;;;;;;;;5034982;28;20520;-68
2022/10/15 13:35:43;;;;;;;7.43;4.05;;;;;;;;;;5034612;28;20534;-66
2022/10/15 13:38:21;;;;;;;4.00;3.50;;;;;;;;;;5034569;28;20072;-65
2022/10/15 13:40:48;;;;;;;7.53;3.80;;;;;;;;;;5034393;28;20497;-71
2022/10/15 13:43:18;;;;;;;4.22;3.67;;;;;;;;;;5034516;28;20044;-67
2022/10/15 13:45:58;;;;;;;7.97;3.45;;;;;;;;;;5034165;28;20481;-67
2022/10/15 13:48:28;;;;;;;5.78;3.53;;;;;;;;;;5034184;28;20603;-69
2022/10/15 13:50:57;;;;;;;6.15;3.42;;;;;;;;;;5034148;28;20021;-67
2022/10/15 13:53:33;;;;;;;6.75;3.72;;;;;;;;;;5034004;28;20075;-70
2022/10/15 13:56:01;;;;;;;5.53;3.70;;;;;;;;;;5033548;28;20124;-66
2022/10/15 13:58:36;;;;;;;5.65;3.58;;;;;;;;;;5032626;28;20480;-67
2022/10/15 14:01:15;;;;;;;4.70;3.50;;;;;;;;;;5033878;28;20458;-69
2022/10/15 14:03:52;;;;;;;7.57;3.70;;;;;;;;;;5034151;28;20033;-72
2022/10/15 14:06:32;;;;;;;4.80;3.50;;;;;;;;;;5033810;28;20025;-68
2022/10/15 14:09:25;;;;;;;10.05;4.00;;;;;;;;;;5034064;28;20033;-70
2022/10/15 14:11:51;;;;;;;5.95;4.03;;;;;;;;;;5033989;28;20104;-72
2022/10/15 14:14:40;;;;;;;4.05;3.45;;;;;;;;;;5033570;28;20706;-72
2022/10/15 14:17:16;;;;;;;5.28;3.47;;;;;;;;;;5033765;28;20030;-72
2022/10/15 14:19:47;;;;;;;9.15;3.60;;;;;;;;;;5033408;28;20046;-70
2022/10/15 14:22:18;;;;;;;5.72;3.65;;;;;;;;;;5033532;28;20028;-71
2022/10/15 14:24:46;;;;;;;4.82;3.47;;;;;;;;;;5033693;28;20033;-66
2022/10/15 14:27:18;;;;;;;6.57;3.90;;;;;;;;;;5033394;28;20539;-72
2022/10/15 14:29:46;;;;;;;5.78;3.80;;;;;;;;;;5033251;28;20037;-72
2022/10/15 14:32:28;;;;;;;5.40;3.80;;;;;;;;;;5033327;28;20083;-69
2022/10/15 14:35:04;;;;;;;6.07;3.90;;;;;;;;;;5033203;28;20475;-72
2022/10/15 14:37:36;;;;;;;7.25;3.40;;;;;;;;;;5033524;28;20041;-72
2022/10/15 14:40:07;;;;;;;5.57;4.03;;;;;;;;;;5033421;28;20048;-73
2022/10/15 14:42:34;;;;;;;7.30;4.10;;;;;;;;;;5033388;28;20057;-71
2022/10/15 14:45:16;;;;;;;4.65;3.97;;;;;;;;;;5033339;28;20358;-72
2022/10/15 14:47:47;;;;;;;5.30;4.10;;;;;;;;;;5033383;28;20033;-71
2022/10/15 14:50:14;;;;;;;8.35;3.80;;;;;;;;;;5033211;28;20057;-72
2022/10/15 14:52:46;;;;;;;6.88;3.97;;;;;;;;;;5033031;28;20021;-74
2022/10/15 14:55:28;;;;;;;6.65;4.10;;;;;;;;;;5032916;28;20065;-71